sensor_id;sensor_type;location;lat;lon;timestamp;pressure;altitude;pressure_sealevel;temperature;humidity
50484;BME280;36409;52.168;20.878;2022-09-13T00:00:04;100326.83;;;7.92;75.47
50484;BME280;36409;52.168;20.878;2022-09-13T00:02:57;100330.31;;;7.83;75.00
50484;BME280;36409;52.168;20.878;2022-09-13T00:05:30;100326.85;;;7.78;75.08
50484;BME280;36409;52.168;20.878;2022-09-13T00:08:02;100327.72;;;7.77;75.55
50484;BME280;36409;52.168;20.878;2022-09-13T00:10:36;100325.14;;;7.72;75.25
50484;BME280;36409;52.168;20.878;2022-09-13T00:13:10;100339.89;;;7.67;75.16
50484;BME280;36409;52.168;20.878;2022-09-13T00:15:45;100326.06;;;7.59;75.19
50484;BME280;36409;52.168;20.878;2022-09-13T00:18:18;100329.55;;;7.53;75.32
50484;BME280;36409;52.168;20.878;2022-09-13T00:20:50;100333.86;;;7.50;75.10
50484;BME280;36409;52.168;20.878;2022-09-13T00:23:22;100326.94;;;7.47;75.46
50484;BME280;36409;52.168;20.878;2022-09-13T00:26:03;100338.20;;;7.46;75.59
50484;BME280;36409;52.168;20.878;2022-09-13T00:28:36;100331.27;;;7.45;75.39
50484;BME280;36409;52.168;20.878;2022-09-13T00:31:09;100326.09;;;7.44;75.24
50484;BME280;36409;52.168;20.878;2022-09-13T00:33:41;100330.41;;;7.43;75.92
50484;BME280;36409;52.168;20.878;2022-09-13T00:36:13;100323.50;;;7.39;75.99
50484;BME280;36409;52.168;20.878;2022-09-13T00:38:46;100321.77;;;7.35;75.73
50484;BME280;36409;52.168;20.878;2022-09-13T00:41:20;100326.13;;;7.30;75.34
50484;BME280;36409;52.168;20.878;2022-09-13T00:43:54;100329.57;;;7.22;75.28
50484;BME280;36409;52.168;20.878;2022-09-13T00:46:32;100320.05;;;7.17;75.46
50484;BME280;36409;52.168;20.878;2022-09-13T00:49:13;100321.80;;;7.13;75.45
50484;BME280;36409;52.168;20.878;2022-09-13T00:51:51;100323.53;;;7.09;75.46
50484;BME280;36409;52.168;20.878;2022-09-13T00:54:27;100315.75;;;7.09;75.60
50484;BME280;36409;52.168;20.878;2022-09-13T00:57:04;100316.61;;;7.08;75.73
50484;BME280;36409;52.168;20.878;2022-09-13T00:59:40;100320.07;;;7.07;75.85
50484;BME280;36409;52.168;20.878;2022-09-13T01:02:15;100321.80;;;7.05;76.09
50484;BME280;36409;52.168;20.878;2022-09-13T01:04:47;100320.94;;;7.02;75.67
50484;BME280;36409;52.168;20.878;2022-09-13T01:07:19;100319.22;;;6.99;76.11
50484;BME280;36409;52.168;20.878;2022-09-13T01:09:53;100329.59;;;6.99;75.89
50484;BME280;36409;52.168;20.878;2022-09-13T01:12:32;100324.39;;;7.01;75.76
50484;BME280;36409;52.168;20.878;2022-09-13T01:15:08;100327.86;;;7.03;75.92
50484;BME280;36409;52.168;20.878;2022-09-13T01:17:41;100329.59;;;6.99;75.82
50484;BME280;36409;52.168;20.878;2022-09-13T01:20:16;100320.08;;;6.98;75.96
50484;BME280;36409;52.168;20.878;2022-09-13T01:23:19;100320.08;;;6.98;76.00
50484;BME280;36409;52.168;20.878;2022-09-13T01:26:09;100313.14;;;6.94;75.94
50484;BME280;36409;52.168;20.878;2022-09-13T01:31:49;100315.75;;;6.89;75.88
50484;BME280;36409;52.168;20.878;2022-09-13T01:34:30;100316.62;;;6.90;76.46
50484;BME280;36409;52.168;20.878;2022-09-13T01:37:19;100308.83;;;6.91;76.32
50484;BME280;36409;52.168;20.878;2022-09-13T01:40:04;100314.02;;;6.88;76.08
50484;BME280;36409;52.168;20.878;2022-09-13T01:42:51;100314.87;;;6.87;76.27
50484;BME280;36409;52.168;20.878;2022-09-13T01:45:37;100317.47;;;6.87;76.21
50484;BME280;36409;52.168;20.878;2022-09-13T01:48:17;100301.91;;;6.87;76.17
50484;BME280;36409;52.168;20.878;2022-09-13T01:50:59;100302.78;;;6.83;76.14
50484;BME280;36409;52.168;20.878;2022-09-13T01:53:38;100306.24;;;6.82;76.10
50484;BME280;36409;52.168;20.878;2022-09-13T01:56:21;100300.17;;;6.82;76.50
50484;BME280;36409;52.168;20.878;2022-09-13T01:59:00;100301.05;;;6.82;76.37
50484;BME280;36409;52.168;20.878;2022-09-13T02:01:39;100301.05;;;6.79;76.10
50484;BME280;36409;52.168;20.878;2022-09-13T02:04:17;100301.05;;;6.77;76.38
50484;BME280;36409;52.168;20.878;2022-09-13T02:06:55;100296.72;;;6.78;76.44
50484;BME280;36409;52.168;20.878;2022-09-13T02:09:35;100301.92;;;6.75;76.27
50484;BME280;36409;52.168;20.878;2022-09-13T02:12:15;100290.67;;;6.70;76.07
50484;BME280;36409;52.168;20.878;2022-09-13T02:14:56;100291.53;;;6.69;76.21
50484;BME280;36409;52.168;20.878;2022-09-13T02:17:34;100291.53;;;6.69;76.37
50484;BME280;36409;52.168;20.878;2022-09-13T02:20:12;100292.38;;;6.64;76.09
50484;BME280;36409;52.168;20.878;2022-09-13T02:22:47;100288.06;;;6.62;76.41
50484;BME280;36409;52.168;20.878;2022-09-13T02:25:25;100283.73;;;6.56;76.31
50484;BME280;36409;52.168;20.878;2022-09-13T02:28:05;100279.43;;;6.52;76.12
50484;BME280;36409;52.168;20.878;2022-09-13T02:30:42;100279.41;;;6.51;76.68
50484;BME280;36409;52.168;20.878;2022-09-13T02:33:18;100283.74;;;6.50;76.36
50484;BME280;36409;52.168;20.878;2022-09-13T02:35:57;100278.55;;;6.47;76.45
50484;BME280;36409;52.168;20.878;2022-09-13T02:38:32;100278.53;;;6.44;76.19
50484;BME280;36409;52.168;20.878;2022-09-13T02:41:13;100273.34;;;6.39;76.27
50484;BME280;36409;52.168;20.878;2022-09-13T02:43:51;100273.34;;;6.33;76.46
50484;BME280;36409;52.168;20.878;2022-09-13T02:46:36;100274.17;;;6.26;76.50
50484;BME280;36409;52.168;20.878;2022-09-13T02:49:23;100276.77;;;6.21;76.38
50484;BME280;36409;52.168;20.878;2022-09-13T02:52:00;100265.53;;;6.17;76.24
50484;BME280;36409;52.168;20.878;2022-09-13T02:54:41;100273.28;;;6.10;76.34
50484;BME280;36409;52.168;20.878;2022-09-13T02:57:19;100261.17;;;6.04;76.34
50484;BME280;36409;52.168;20.878;2022-09-13T02:59:53;100263.75;;;5.99;76.33
50484;BME280;36409;52.168;20.878;2022-09-13T03:02:30;100261.98;;;5.98;76.52
50484;BME280;36409;52.168;20.878;2022-09-13T03:05:03;100252.48;;;5.97;76.02
50484;BME280;36409;52.168;20.878;2022-09-13T03:07:36;100255.94;;;5.93;76.51
50484;BME280;36409;52.168;20.878;2022-09-13T03:10:09;100257.66;;;5.91;76.40
50484;BME280;36409;52.168;20.878;2022-09-13T03:13:04;100253.31;;;5.87;76.39
50484;BME280;36409;52.168;20.878;2022-09-13T03:15:55;100244.67;;;5.83;76.70
50484;BME280;36409;52.168;20.878;2022-09-13T03:18:40;100245.55;;;5.79;76.36
50484;BME280;36409;52.168;20.878;2022-09-13T03:21:29;100247.23;;;5.76;76.46
50484;BME280;36409;52.168;20.878;2022-09-13T03:24:16;100242.06;;;5.74;76.75
50484;BME280;36409;52.168;20.878;2022-09-13T03:27:08;100234.27;;;5.71;76.29
50484;BME280;36409;52.168;20.878;2022-09-13T03:29:49;100232.55;;;5.73;76.56
50484;BME280;36409;52.168;20.878;2022-09-13T03:32:31;100247.22;;;5.71;76.59
50484;BME280;36409;52.168;20.878;2022-09-13T03:35:09;100235.11;;;5.65;76.18
50484;BME280;36409;52.168;20.878;2022-09-13T03:37:53;100227.35;;;5.62;76.61
50484;BME280;36409;52.168;20.878;2022-09-13T03:40:36;100226.47;;;5.63;76.94
50484;BME280;36409;52.168;20.878;2022-09-13T03:43:15;100227.34;;;5.64;76.47
50484;BME280;36409;52.168;20.878;2022-09-13T03:45:51;100229.05;;;5.62;76.87
50484;BME280;36409;52.168;20.878;2022-09-13T03:48:26;100229.03;;;5.59;76.55
50484;BME280;36409;52.168;20.878;2022-09-13T03:50:59;100227.30;;;5.57;76.92
50484;BME280;36409;52.168;20.878;2022-09-13T03:53:33;100223.86;;;5.57;76.81
50484;BME280;36409;52.168;20.878;2022-09-13T03:56:14;100217.81;;;5.55;76.43
50484;BME280;36409;52.168;20.878;2022-09-13T03:58:48;100214.34;;;5.53;76.83
50484;BME280;36409;52.168;20.878;2022-09-13T04:01:22;100217.80;;;5.50;76.59
50484;BME280;36409;52.168;20.878;2022-09-13T04:03:55;100220.38;;;5.49;76.80
50484;BME280;36409;52.168;20.878;2022-09-13T04:06:27;100223.80;;;5.45;76.44
50484;BME280;36409;52.168;20.878;2022-09-13T04:09:00;100215.16;;;5.43;76.76
50484;BME280;36409;52.168;20.878;2022-09-13T04:11:32;100221.22;;;5.43;76.72
50484;BME280;36409;52.168;20.878;2022-09-13T04:14:04;100217.75;;;5.41;76.60
50484;BME280;36409;52.168;20.878;2022-09-13T04:16:36;100218.62;;;5.38;76.20
50484;BME280;36409;52.168;20.878;2022-09-13T04:19:08;100216.86;;;5.36;76.82
50484;BME280;36409;52.168;20.878;2022-09-13T04:21:41;100222.89;;;5.32;76.56
50484;BME280;36409;52.168;20.878;2022-09-13T04:24:14;100219.44;;;5.28;76.53
50484;BME280;36409;52.168;20.878;2022-09-13T04:26:49;100222.88;;;5.27;76.71
50484;BME280;36409;52.168;20.878;2022-09-13T04:29:24;100219.41;;;5.26;76.89
50484;BME280;36409;52.168;20.878;2022-09-13T04:31:56;100221.99;;;5.26;76.65
50484;BME280;36409;52.168;20.878;2022-09-13T04:34:28;100222.88;;;5.27;76.55
50484;BME280;36409;52.168;20.878;2022-09-13T04:37:01;100219.41;;;5.26;76.88
50484;BME280;36409;52.168;20.878;2022-09-13T04:39:33;100227.17;;;5.26;76.78
50484;BME280;36409;52.168;20.878;2022-09-13T04:42:06;100220.28;;;5.27;76.81
50484;BME280;36409;52.168;20.878;2022-09-13T04:44:38;100222.88;;;5.29;76.54
50484;BME280;36409;52.168;20.878;2022-09-13T04:47:11;100225.48;;;5.32;76.90
50484;BME280;36409;52.168;20.878;2022-09-13T04:49:43;100223.77;;;5.34;77.19
50484;BME280;36409;52.168;20.878;2022-09-13T04:52:15;100226.36;;;5.37;77.09
50484;BME280;36409;52.168;20.878;2022-09-13T04:54:47;100227.23;;;5.39;77.18
50484;BME280;36409;52.168;20.878;2022-09-13T04:57:20;100222.08;;;5.42;76.83
50484;BME280;36409;52.168;20.878;2022-09-13T04:59:52;100216.05;;;5.45;77.07
50484;BME280;36409;52.168;20.878;2022-09-13T05:02:24;100222.95;;;5.46;76.79
50484;BME280;36409;52.168;20.878;2022-09-13T05:04:56;100221.24;;;5.48;77.47
50484;BME280;36409;52.168;20.878;2022-09-13T05:07:28;100215.20;;;5.50;76.97
50484;BME280;36409;52.168;20.878;2022-09-13T05:10:00;100215.22;;;5.55;77.08
50484;BME280;36409;52.168;20.878;2022-09-13T05:12:33;100215.23;;;5.58;76.85
50484;BME280;36409;52.168;20.878;2022-09-13T05:15:06;100219.57;;;5.65;77.31
50484;BME280;36409;52.168;20.878;2022-09-13T05:17:38;100211.83;;;5.73;77.27
50484;BME280;36409;52.168;20.878;2022-09-13T05:20:11;100213.59;;;5.82;77.12
50484;BME280;36409;52.168;20.878;2022-09-13T05:22:44;100210.16;;;5.98;77.37
50484;BME280;36409;52.168;20.878;2022-09-13T05:25:16;100213.72;;;6.24;77.37
50484;BME280;36409;52.168;20.878;2022-09-13T05:27:54;100209.41;;;6.40;77.09
50484;BME280;36409;52.168;20.878;2022-09-13T05:30:26;100218.03;;;6.49;77.43
50484;BME280;36409;52.168;20.878;2022-09-13T05:33:01;100214.58;;;6.58;77.51
50484;BME280;36409;52.168;20.878;2022-09-13T05:35:33;100215.44;;;6.70;77.36
50484;BME280;36409;52.168;20.878;2022-09-13T05:38:06;100219.75;;;6.80;77.72
50484;BME280;36409;52.168;20.878;2022-09-13T05:40:37;100217.14;;;6.92;77.83
50484;BME280;36409;52.168;20.878;2022-09-13T05:43:10;100207.59;;;7.05;77.58
50484;BME280;36409;52.168;20.878;2022-09-13T05:45:42;100207.58;;;7.16;77.76
50484;BME280;36409;52.168;20.878;2022-09-13T05:48:15;100204.95;;;7.25;77.85
50484;BME280;36409;52.168;20.878;2022-09-13T05:50:47;100200.58;;;7.38;77.91
50484;BME280;36409;52.168;20.878;2022-09-13T05:53:28;100189.27;;;7.52;77.97
50484;BME280;36409;52.168;20.878;2022-09-13T05:56:01;100190.97;;;7.64;78.27
50484;BME280;36409;52.168;20.878;2022-09-13T05:58:33;100186.58;;;7.75;78.00
50484;BME280;36409;52.168;20.878;2022-09-13T06:01:06;100184.78;;;7.86;77.95
50484;BME280;36409;52.168;20.878;2022-09-13T06:03:39;100183.83;;;7.98;77.74
50484;BME280;36409;52.168;20.878;2022-09-13T06:06:11;100190.67;;;8.12;78.22
50484;BME280;36409;52.168;20.878;2022-09-13T06:08:45;100180.19;;;8.24;77.97
50484;BME280;36409;52.168;20.878;2022-09-13T06:11:17;100179.16;;;8.44;78.40
50484;BME280;36409;52.168;20.878;2022-09-13T06:13:50;100177.31;;;8.60;78.50
50484;BME280;36409;52.168;20.878;2022-09-13T06:16:23;100170.98;;;8.89;78.43
50484;BME280;36409;52.168;20.878;2022-09-13T06:18:56;100176.58;;;9.31;78.72
50484;BME280;36409;52.168;20.878;2022-09-13T06:21:28;100167.50;;;11.64;74.51
50484;BME280;36409;52.168;20.878;2022-09-13T06:24:00;100171.50;;;14.10;72.77
50484;BME280;36409;52.168;20.878;2022-09-13T06:26:33;100163.68;;;15.83;71.87
50484;BME280;36409;52.168;20.878;2022-09-13T06:29:05;100166.58;;;16.43;72.18
50484;BME280;36409;52.168;20.878;2022-09-13T06:31:37;100163.48;;;17.35;71.18
50484;BME280;36409;52.168;20.878;2022-09-13T06:34:15;100165.72;;;17.44;71.63
50484;BME280;36409;52.168;20.878;2022-09-13T06:36:47;100171.70;;;16.46;73.48
50484;BME280;36409;52.168;20.878;2022-09-13T06:39:19;100174.27;;;15.81;73.78
50484;BME280;36409;52.168;20.878;2022-09-13T06:41:51;100167.78;;;15.20;73.65
50484;BME280;36409;52.168;20.878;2022-09-13T06:44:26;100166.05;;;14.70;73.73
50484;BME280;36409;52.168;20.878;2022-09-13T06:46:58;100170.66;;;14.36;74.53
50484;BME280;36409;52.168;20.878;2022-09-13T06:49:30;100164.69;;;14.04;74.99
50484;BME280;36409;52.168;20.878;2022-09-13T06:52:03;100170.69;;;13.80;74.25
50484;BME280;36409;52.168;20.878;2022-09-13T06:54:35;100167.77;;;13.61;74.69
50484;BME280;36409;52.168;20.878;2022-09-13T06:57:07;100165.61;;;13.45;75.23
50484;BME280;36409;52.168;20.878;2022-09-13T06:59:39;100171.18;;;13.33;74.59
50484;BME280;36409;52.168;20.878;2022-09-13T07:02:12;100166.23;;;13.22;74.76
50484;BME280;36409;52.168;20.878;2022-09-13T07:04:45;100167.34;;;13.13;75.16
50484;BME280;36409;52.168;20.878;2022-09-13T07:07:17;100163.92;;;13.11;74.77
50484;BME280;36409;52.168;20.878;2022-09-13T07:09:50;100157.81;;;13.10;74.78
50484;BME280;36409;52.168;20.878;2022-09-13T07:12:22;100149.05;;;13.11;74.80
50484;BME280;36409;52.168;20.878;2022-09-13T07:14:54;100153.45;;;13.11;74.85
50484;BME280;36409;52.168;20.878;2022-09-13T07:17:27;100154.22;;;13.15;75.06
50484;BME280;36409;52.168;20.878;2022-09-13T07:20:01;100161.89;;;13.21;75.86
50484;BME280;36409;52.168;20.878;2022-09-13T07:22:35;100152.09;;;13.27;75.66
50484;BME280;36409;52.168;20.878;2022-09-13T07:25:09;100154.50;;;13.35;75.65
50484;BME280;36409;52.168;20.878;2022-09-13T07:27:41;100151.71;;;13.41;75.08
50484;BME280;36409;52.168;20.878;2022-09-13T07:30:16;100154.99;;;13.50;75.13
50484;BME280;36409;52.168;20.878;2022-09-13T07:32:48;100150.42;;;13.56;75.16
50484;BME280;36409;52.168;20.878;2022-09-13T07:35:20;100156.28;;;13.65;74.99
50484;BME280;36409;52.168;20.878;2022-09-13T07:37:52;100149.94;;;13.72;75.75
50484;BME280;36409;52.168;20.878;2022-09-13T07:40:24;100154.66;;;13.89;75.04
50484;BME280;36409;52.168;20.878;2022-09-13T07:42:56;100147.31;;;14.00;74.93
50484;BME280;36409;52.168;20.878;2022-09-13T07:45:28;100151.44;;;14.08;75.47
50484;BME280;36409;52.168;20.878;2022-09-13T07:48:00;100152.89;;;14.18;74.84
50484;BME280;36409;52.168;20.878;2022-09-13T07:50:33;100147.27;;;14.29;75.06
50484;BME280;36409;52.168;20.878;2022-09-13T07:53:04;100155.33;;;14.49;75.19
50484;BME280;36409;52.168;20.878;2022-09-13T07:55:36;100154.47;;;14.76;74.47
50484;BME280;36409;52.168;20.878;2022-09-13T07:58:09;100154.17;;;15.09;74.06
50484;BME280;36409;52.168;20.878;2022-09-13T08:00:41;100150.52;;;15.60;73.15
50484;BME280;36409;52.168;20.878;2022-09-13T08:03:13;100147.36;;;16.19;72.77
50484;BME280;36409;52.168;20.878;2022-09-13T08:05:46;100144.86;;;17.19;71.55
50484;BME280;36409;52.168;20.878;2022-09-13T08:08:18;100140.09;;;18.57;69.72
50484;BME280;36409;52.168;20.878;2022-09-13T08:10:51;100127.45;;;19.31;68.84
50484;BME280;36409;52.168;20.878;2022-09-13T08:13:23;100130.78;;;19.50;69.23
50484;BME280;36409;52.168;20.878;2022-09-13T08:15:55;100131.23;;;19.74;68.08
50484;BME280;36409;52.168;20.878;2022-09-13T08:18:27;100126.95;;;20.04;67.81
50484;BME280;36409;52.168;20.878;2022-09-13T08:21:00;100118.32;;;20.31;66.85
50484;BME280;36409;52.168;20.878;2022-09-13T08:23:33;100125.97;;;20.66;66.76
50484;BME280;36409;52.168;20.878;2022-09-13T08:26:05;100121.20;;;20.87;65.92
50484;BME280;36409;52.168;20.878;2022-09-13T08:28:39;100118.25;;;22.04;63.27
50484;BME280;36409;52.168;20.878;2022-09-13T08:31:13;100112.44;;;23.79;60.28
50484;BME280;36409;52.168;20.878;2022-09-13T08:33:48;100110.19;;;24.68;59.15
50484;BME280;36409;52.168;20.878;2022-09-13T08:36:21;100106.36;;;24.72;59.51
50484;BME280;36409;52.168;20.878;2022-09-13T08:38:56;100113.00;;;23.71;60.92
50484;BME280;36409;52.168;20.878;2022-09-13T08:44:34;100110.91;;;24.12;58.38
50484;BME280;36409;52.168;20.878;2022-09-13T08:47:22;100108.45;;;24.44;57.98
50484;BME280;36409;52.168;20.878;2022-09-13T08:50:03;100098.83;;;24.77;57.30
50484;BME280;36409;52.168;20.878;2022-09-13T08:52:44;100102.13;;;25.04;56.62
50484;BME280;36409;52.168;20.878;2022-09-13T08:55:27;100103.47;;;24.98;56.82
50484;BME280;36409;52.168;20.878;2022-09-13T08:58:12;100095.13;;;24.56;57.19
50484;BME280;36409;52.168;20.878;2022-09-13T09:00:50;100095.21;;;24.31;58.05
50484;BME280;36409;52.168;20.878;2022-09-13T09:03:30;100093.44;;;24.08;57.70
50484;BME280;36409;52.168;20.878;2022-09-13T09:06:12;100094.51;;;23.56;57.85
50484;BME280;36409;52.168;20.878;2022-09-13T09:08:48;100091.01;;;23.06;57.64
50484;BME280;36409;52.168;20.878;2022-09-13T09:11:30;100097.52;;;22.63;57.12
50484;BME280;36409;52.168;20.878;2022-09-13T09:14:11;100099.17;;;22.38;57.28
50484;BME280;36409;52.168;20.878;2022-09-13T09:16:49;100096.70;;;22.22;57.69
50484;BME280;36409;52.168;20.878;2022-09-13T09:19:26;100095.00;;;22.21;57.76
50484;BME280;36409;52.168;20.878;2022-09-13T09:22:03;100086.39;;;22.30;56.98
50484;BME280;36409;52.168;20.878;2022-09-13T09:24:37;100074.75;;;22.59;57.31
50484;BME280;36409;52.168;20.878;2022-09-13T09:27:15;100076.67;;;22.70;56.94
50484;BME280;36409;52.168;20.878;2022-09-13T09:29:50;100067.41;;;22.49;56.38
50484;BME280;36409;52.168;20.878;2022-09-13T09:32:36;100074.80;;;22.18;56.61
50484;BME280;36409;52.168;20.878;2022-09-13T09:35:17;100076.89;;;22.00;57.15
50484;BME280;36409;52.168;20.878;2022-09-13T09:38:20;100063.22;;;21.79;56.56
50484;BME280;36409;52.168;20.878;2022-09-13T09:40:55;100065.79;;;21.81;57.01
50484;BME280;36409;52.168;20.878;2022-09-13T09:43:33;100064.98;;;21.93;57.06
50484;BME280;36409;52.168;20.878;2022-09-13T09:46:09;100062.66;;;22.01;56.57
50484;BME280;36409;52.168;20.878;2022-09-13T09:48:50;100057.78;;;22.08;56.09
50484;BME280;36409;52.168;20.878;2022-09-13T09:51:26;100052.07;;;22.40;56.03
50484;BME280;36409;52.168;20.878;2022-09-13T09:54:02;100045.82;;;22.54;55.68
50484;BME280;36409;52.168;20.878;2022-09-13T09:56:35;100040.41;;;22.56;55.80
50484;BME280;36409;52.168;20.878;2022-09-13T09:59:26;100043.26;;;22.40;55.05
50484;BME280;36409;52.168;20.878;2022-09-13T10:01:59;100045.80;;;22.28;54.77
50484;BME280;36409;52.168;20.878;2022-09-13T10:04:34;100035.66;;;22.08;55.13
50484;BME280;36409;52.168;20.878;2022-09-13T10:07:21;100038.19;;;21.96;55.16
50484;BME280;36409;52.168;20.878;2022-09-13T10:10:00;100036.63;;;21.66;55.37
50484;BME280;36409;52.168;20.878;2022-09-13T10:12:37;100036.60;;;21.39;55.40
50484;BME280;36409;52.168;20.878;2022-09-13T10:15:17;100033.03;;;21.25;55.29
50484;BME280;36409;52.168;20.878;2022-09-13T10:18:05;100025.48;;;21.19;55.35
50484;BME280;36409;52.168;20.878;2022-09-13T10:21:03;100034.22;;;21.07;55.26
50484;BME280;36409;52.168;20.878;2022-09-13T10:23:36;100033.17;;;20.95;55.02
50484;BME280;36409;52.168;20.878;2022-09-13T10:26:10;100031.98;;;20.86;55.50
50484;BME280;36409;52.168;20.878;2022-09-13T10:28:49;100029.03;;;20.91;55.55
50484;BME280;36409;52.168;20.878;2022-09-13T10:31:30;100028.16;;;21.05;55.01
50484;BME280;36409;52.168;20.878;2022-09-13T10:34:10;100015.65;;;21.07;55.43
50484;BME280;36409;52.168;20.878;2022-09-13T10:36:53;100010.28;;;20.94;55.05
50484;BME280;36409;52.168;20.878;2022-09-13T10:39:28;100011.78;;;20.83;55.02
50484;BME280;36409;52.168;20.878;2022-09-13T10:42:03;100001.39;;;20.80;55.24
50484;BME280;36409;52.168;20.878;2022-09-13T10:44:40;99989.73;;;20.83;54.61
50484;BME280;36409;52.168;20.878;2022-09-13T10:47:21;100001.56;;;20.92;54.67
50484;BME280;36409;52.168;20.878;2022-09-13T10:49:55;99997.86;;;20.94;54.50
50484;BME280;36409;52.168;20.878;2022-09-13T10:52:34;100004.00;;;20.95;54.57
50484;BME280;36409;52.168;20.878;2022-09-13T10:55:28;99999.84;;;21.05;54.40
50484;BME280;36409;52.168;20.878;2022-09-13T10:58:17;99996.18;;;21.21;54.89
50484;BME280;36409;52.168;20.878;2022-09-13T11:01:09;99990.03;;;21.48;55.00
50484;BME280;36409;52.168;20.878;2022-09-13T11:07:17;99982.06;;;21.75;54.30
50484;BME280;36409;52.168;20.878;2022-09-13T11:09:54;99994.14;;;21.66;54.41
50484;BME280;36409;52.168;20.878;2022-09-13T11:12:33;99997.44;;;21.42;53.59
50484;BME280;36409;52.168;20.878;2022-09-13T11:15:16;99987.27;;;21.22;53.71
50484;BME280;36409;52.168;20.878;2022-09-13T11:18:11;99978.51;;;21.07;53.95
50484;BME280;36409;52.168;20.878;2022-09-13T11:20:54;99974.56;;;21.00;54.27
50484;BME280;36409;52.168;20.878;2022-09-13T11:23:50;99974.09;;;20.93;54.72
50484;BME280;36409;52.168;20.878;2022-09-13T11:26:42;99974.28;;;20.90;54.50
50484;BME280;36409;52.168;20.878;2022-09-13T11:29:30;99967.00;;;20.79;54.44
50484;BME280;36409;52.168;20.878;2022-09-13T11:32:13;99972.02;;;20.55;54.21
50484;BME280;36409;52.168;20.878;2022-09-13T11:35:01;99968.06;;;20.47;54.50
50484;BME280;36409;52.168;20.878;2022-09-13T11:37:51;99955.75;;;20.46;54.78
50484;BME280;36409;52.168;20.878;2022-09-13T11:40:37;99958.77;;;20.40;54.70
50484;BME280;36409;52.168;20.878;2022-09-13T11:43:34;99959.05;;;20.35;54.79
50484;BME280;36409;52.168;20.878;2022-09-13T11:46:12;99951.28;;;20.32;55.04
50484;BME280;36409;52.168;20.878;2022-09-13T11:49:11;99950.63;;;20.29;55.20
50484;BME280;36409;52.168;20.878;2022-09-13T11:51:55;99933.59;;;20.18;55.50
50484;BME280;36409;52.168;20.878;2022-09-13T11:54:44;99927.92;;;20.10;55.46
50484;BME280;36409;52.168;20.878;2022-09-13T11:57:26;99923.74;;;20.06;55.33
50484;BME280;36409;52.168;20.878;2022-09-13T12:00:03;99923.08;;;20.02;55.86
50484;BME280;36409;52.168;20.878;2022-09-13T12:02:44;99921.48;;;20.00;55.44
50484;BME280;36409;52.168;20.878;2022-09-13T12:05:20;99916.29;;;19.98;55.99
50484;BME280;36409;52.168;20.878;2022-09-13T12:07:58;99909.00;;;20.02;55.60
50484;BME280;36409;52.168;20.878;2022-09-13T12:10:38;99900.11;;;20.03;55.71
50484;BME280;36409;52.168;20.878;2022-09-13T12:13:17;99897.47;;;20.03;55.50
50484;BME280;36409;52.168;20.878;2022-09-13T12:15:52;99896.40;;;19.91;55.66
50484;BME280;36409;52.168;20.878;2022-09-13T12:18:28;99893.20;;;19.86;55.97
50484;BME280;36409;52.168;20.878;2022-09-13T12:21:06;99891.45;;;19.85;56.15
50484;BME280;36409;52.168;20.878;2022-09-13T12:23:45;99878.67;;;19.77;55.97
50484;BME280;36409;52.168;20.878;2022-09-13T12:26:25;99882.44;;;19.73;56.30
50484;BME280;36409;52.168;20.878;2022-09-13T12:29:10;99872.23;;;19.67;56.18
50484;BME280;36409;52.168;20.878;2022-09-13T12:31:45;99863.91;;;19.58;56.09
50484;BME280;36409;52.168;20.878;2022-09-13T12:34:21;99859.14;;;19.49;56.44
50484;BME280;36409;52.168;20.878;2022-09-13T12:37:15;99871.05;;;19.42;56.56
50484;BME280;36409;52.168;20.878;2022-09-13T12:40:02;99867.80;;;19.37;56.42
50484;BME280;36409;52.168;20.878;2022-09-13T12:43:06;99871.59;;;19.33;56.96
50484;BME280;36409;52.168;20.878;2022-09-13T12:46:04;99860.07;;;19.34;57.00
50484;BME280;36409;52.168;20.878;2022-09-13T12:48:56;99862.13;;;19.28;56.74
50484;BME280;36409;52.168;20.878;2022-09-13T12:51:47;99853.34;;;19.28;57.22
50484;BME280;36409;52.168;20.878;2022-09-13T12:54:40;99853.34;;;19.28;57.25
50484;BME280;36409;52.168;20.878;2022-09-13T12:57:27;99849.66;;;19.31;57.30
50484;BME280;36409;52.168;20.878;2022-09-13T13:00:11;99846.25;;;19.28;57.51
50484;BME280;36409;52.168;20.878;2022-09-13T13:02:49;99843.77;;;19.25;57.39
50484;BME280;36409;52.168;20.878;2022-09-13T13:05:28;99841.87;;;19.13;57.06
50484;BME280;36409;52.168;20.878;2022-09-13T13:08:04;99831.64;;;19.07;57.49
50484;BME280;36409;52.168;20.878;2022-09-13T13:10:39;99826.52;;;19.04;57.72
50484;BME280;36409;52.168;20.878;2022-09-13T13:13:13;99829.44;;;18.99;57.61
50484;BME280;36409;52.168;20.878;2022-09-13T13:16:00;99837.63;;;18.94;57.55
50484;BME280;36409;52.168;20.878;2022-09-13T13:18:46;99830.03;;;18.88;57.75
50484;BME280;36409;52.168;20.878;2022-09-13T13:21:37;99822.44;;;18.82;58.07
50484;BME280;36409;52.168;20.878;2022-09-13T13:24:44;99811.97;;;18.80;58.04
50484;BME280;36409;52.168;20.878;2022-09-13T13:27:35;99806.08;;;18.75;58.21
50484;BME280;36409;52.168;20.878;2022-09-13T13:33:28;99810.36;;;18.78;57.90
50484;BME280;36409;52.168;20.878;2022-09-13T13:36:21;99814.70;;;18.79;57.95
50484;BME280;36409;52.168;20.878;2022-09-13T13:38:56;99811.03;;;18.81;58.12
50484;BME280;36409;52.168;20.878;2022-09-13T13:41:38;99803.20;;;18.80;58.27
50484;BME280;36409;52.168;20.878;2022-09-13T13:50:35;99802.93;;;18.85;58.36
50484;BME280;36409;52.168;20.878;2022-09-13T13:53:36;99798.65;;;18.82;58.21
50484;BME280;36409;52.168;20.878;2022-09-13T13:56:19;99801.22;;;18.83;58.28
50484;BME280;36409;52.168;20.878;2022-09-13T13:58:55;99803.87;;;18.83;58.28
50484;BME280;36409;52.168;20.878;2022-09-13T14:01:35;99800.02;;;18.89;58.52